sensor_id;sensor_type;location;lat;lon;timestamp;P1;durP1;ratioP1;P2;durP2;ratioP2
45236;SDS011;30973;51.442;3.580;2023-01-19T00:00:52;19.08;;;7.78;;
45236;SDS011;30973;51.442;3.580;2023-01-19T00:03:18;22.25;;;7.28;;
45236;SDS011;30973;51.442;3.580;2023-01-19T00:05:45;18.98;;;6.60;;
45236;SDS011;30973;51.442;3.580;2023-01-19T00:08:12;16.50;;;5.45;;
45236;SDS011;30973;51.442;3.580;2023-01-19T00:10:43;20.10;;;6.00;;
45236;SDS011;30973;51.442;3.580;2023-01-19T00:13:10;17.15;;;6.00;;
45236;SDS011;30973;51.442;3.580;2023-01-19T00:15:37;19.58;;;7.03;;
45236;SDS011;30973;51.442;3.580;2023-01-19T00:18:04;13.43;;;4.93;;
45236;SDS011;30973;51.442;3.580;2023-01-19T00:20:30;15.00;;;4.95;;
45236;SDS011;30973;51.442;3.580;2023-01-19T00:22:58;10.02;;;3.83;;
45236;SDS011;30973;51.442;3.580;2023-01-19T00:25:25;16.70;;;4.90;;
45236;SDS011;30973;51.442;3.580;2023-01-19T00:27:52;14.20;;;4.22;;
45236;SDS011;30973;51.442;3.580;2023-01-19T00:30:18;9.15;;;2.60;;
45236;SDS011;30973;51.442;3.580;2023-01-19T00:32:45;9.60;;;2.85;;
45236;SDS011;30973;51.442;3.580;2023-01-19T00:35:12;11.48;;;4.22;;
45236;SDS011;30973;51.442;3.580;2023-01-19T00:37:39;10.93;;;3.22;;
45236;SDS011;30973;51.442;3.580;2023-01-19T00:40:06;15.95;;;6.13;;
45236;SDS011;30973;51.442;3.580;2023-01-19T00:42:32;7.18;;;2.70;;
45236;SDS011;30973;51.442;3.580;2023-01-19T00:45:12;9.95;;;4.03;;
45236;SDS011;30973;51.442;3.580;2023-01-19T00:47:39;12.35;;;3.63;;
45236;SDS011;30973;51.442;3.580;2023-01-19T00:50:09;9.32;;;2.28;;
45236;SDS011;30973;51.442;3.580;2023-01-19T00:52:39;10.18;;;1.77;;
45236;SDS011;30973;51.442;3.580;2023-01-19T00:55:06;5.72;;;1.73;;
45236;SDS011;30973;51.442;3.580;2023-01-19T00:57:33;15.05;;;3.15;;
45236;SDS011;30973;51.442;3.580;2023-01-19T01:00:00;15.00;;;2.83;;
45236;SDS011;30973;51.442;3.580;2023-01-19T01:02:27;7.97;;;2.42;;
45236;SDS011;30973;51.442;3.580;2023-01-19T01:04:54;10.95;;;3.38;;
45236;SDS011;30973;51.442;3.580;2023-01-19T01:07:22;11.05;;;2.67;;
45236;SDS011;30973;51.442;3.580;2023-01-19T01:09:50;6.90;;;2.63;;
45236;SDS011;30973;51.442;3.580;2023-01-19T01:12:16;7.43;;;2.22;;
45236;SDS011;30973;51.442;3.580;2023-01-19T01:14:43;7.97;;;1.85;;
45236;SDS011;30973;51.442;3.580;2023-01-19T01:17:10;7.43;;;1.92;;
45236;SDS011;30973;51.442;3.580;2023-01-19T01:19:37;6.20;;;2.08;;
45236;SDS011;30973;51.442;3.580;2023-01-19T01:22:03;5.15;;;1.58;;
45236;SDS011;30973;51.442;3.580;2023-01-19T01:24:30;7.10;;;1.30;;
45236;SDS011;30973;51.442;3.580;2023-01-19T01:26:57;9.23;;;1.30;;
45236;SDS011;30973;51.442;3.580;2023-01-19T01:29:24;3.72;;;0.98;;
45236;SDS011;30973;51.442;3.580;2023-01-19T01:31:51;3.45;;;0.73;;
45236;SDS011;30973;51.442;3.580;2023-01-19T01:34:17;4.03;;;0.85;;
45236;SDS011;30973;51.442;3.580;2023-01-19T01:36:44;2.63;;;1.45;;
45236;SDS011;30973;51.442;3.580;2023-01-19T01:39:11;2.42;;;0.70;;
45236;SDS011;30973;51.442;3.580;2023-01-19T01:41:38;6.82;;;1.10;;
45236;SDS011;30973;51.442;3.580;2023-01-19T01:44:41;2.72;;;0.95;;
45236;SDS011;30973;51.442;3.580;2023-01-19T01:46:51;5.25;;;1.35;;
45236;SDS011;30973;51.442;3.580;2023-01-19T01:49:17;2.35;;;0.90;;
45236;SDS011;30973;51.442;3.580;2023-01-19T01:51:45;3.65;;;0.70;;
45236;SDS011;30973;51.442;3.580;2023-01-19T01:54:14;4.53;;;0.77;;
45236;SDS011;30973;51.442;3.580;2023-01-19T01:56:43;3.55;;;1.10;;
45236;SDS011;30973;51.442;3.580;2023-01-19T01:59:14;3.97;;;1.05;;
45236;SDS011;30973;51.442;3.580;2023-01-19T02:02:01;3.92;;;0.80;;
45236;SDS011;30973;51.442;3.580;2023-01-19T02:04:52;2.78;;;0.70;;
45236;SDS011;30973;51.442;3.580;2023-01-19T02:07:23;3.55;;;0.80;;
45236;SDS011;30973;51.442;3.580;2023-01-19T02:10:10;4.57;;;0.77;;
45236;SDS011;30973;51.442;3.580;2023-01-19T02:12:55;3.38;;;0.90;;
45236;SDS011;30973;51.442;3.580;2023-01-19T02:15:42;6.28;;;0.98;;
45236;SDS011;30973;51.442;3.580;2023-01-19T02:18:09;3.33;;;0.80;;
45236;SDS011;30973;51.442;3.580;2023-01-19T02:20:36;6.15;;;0.93;;
45236;SDS011;30973;51.442;3.580;2023-01-19T02:23:05;6.10;;;0.80;;
45236;SDS011;30973;51.442;3.580;2023-01-19T02:25:32;4.57;;;0.77;;
45236;SDS011;30973;51.442;3.580;2023-01-19T02:27:59;4.45;;;0.73;;
45236;SDS011;30973;51.442;3.580;2023-01-19T02:30:26;2.72;;;0.80;;
45236;SDS011;30973;51.442;3.580;2023-01-19T02:32:53;3.97;;;0.88;;
45236;SDS011;30973;51.442;3.580;2023-01-19T02:35:20;5.70;;;0.82;;
45236;SDS011;30973;51.442;3.580;2023-01-19T02:37:47;7.60;;;1.27;;
45236;SDS011;30973;51.442;3.580;2023-01-19T02:40:15;5.20;;;1.05;;
45236;SDS011;30973;51.442;3.580;2023-01-19T02:42:49;7.00;;;1.40;;
45236;SDS011;30973;51.442;3.580;2023-01-19T02:45:28;4.45;;;1.20;;
45236;SDS011;30973;51.442;3.580;2023-01-19T02:47:55;7.32;;;1.30;;
45236;SDS011;30973;51.442;3.580;2023-01-19T02:55:37;5.28;;;1.35;;
45236;SDS011;30973;51.442;3.580;2023-01-19T02:58:10;7.13;;;1.73;;
45236;SDS011;30973;51.442;3.580;2023-01-19T03:03:20;8.55;;;2.20;;
45236;SDS011;30973;51.442;3.580;2023-01-19T03:06:41;8.00;;;1.60;;
45236;SDS011;30973;51.442;3.580;2023-01-19T03:16:24;9.75;;;1.90;;
45236;SDS011;30973;51.442;3.580;2023-01-19T03:18:50;8.77;;;1.40;;
45236;SDS011;30973;51.442;3.580;2023-01-19T03:21:19;10.25;;;2.17;;
45236;SDS011;30973;51.442;3.580;2023-01-19T03:23:49;8.90;;;2.38;;
45236;SDS011;30973;51.442;3.580;2023-01-19T03:26:17;7.82;;;2.35;;
45236;SDS011;30973;51.442;3.580;2023-01-19T03:28:44;7.90;;;2.33;;
45236;SDS011;30973;51.442;3.580;2023-01-19T03:31:18;7.53;;;2.35;;
45236;SDS011;30973;51.442;3.580;2023-01-19T03:33:48;7.00;;;2.05;;
45236;SDS011;30973;51.442;3.580;2023-01-19T03:36:20;9.43;;;2.30;;
45236;SDS011;30973;51.442;3.580;2023-01-19T03:38:49;10.57;;;1.95;;
45236;SDS011;30973;51.442;3.580;2023-01-19T03:41:18;14.50;;;2.67;;
45236;SDS011;30973;51.442;3.580;2023-01-19T03:43:46;11.25;;;2.42;;
45236;SDS011;30973;51.442;3.580;2023-01-19T03:46:13;6.95;;;2.90;;
45236;SDS011;30973;51.442;3.580;2023-01-19T03:48:43;7.03;;;2.30;;
45236;SDS011;30973;51.442;3.580;2023-01-19T03:51:10;11.02;;;2.22;;
45236;SDS011;30973;51.442;3.580;2023-01-19T03:53:37;8.32;;;2.10;;
45236;SDS011;30973;51.442;3.580;2023-01-19T03:56:04;10.25;;;2.05;;
45236;SDS011;30973;51.442;3.580;2023-01-19T03:58:31;11.93;;;2.92;;
45236;SDS011;30973;51.442;3.580;2023-01-19T04:00:58;11.48;;;2.90;;
45236;SDS011;30973;51.442;3.580;2023-01-19T04:03:24;6.13;;;2.15;;
45236;SDS011;30973;51.442;3.580;2023-01-19T04:05:51;6.07;;;1.90;;
45236;SDS011;30973;51.442;3.580;2023-01-19T04:08:18;10.07;;;2.28;;
45236;SDS011;30973;51.442;3.580;2023-01-19T04:10:44;9.55;;;1.95;;
45236;SDS011;30973;51.442;3.580;2023-01-19T04:13:11;10.35;;;2.22;;
45236;SDS011;30973;51.442;3.580;2023-01-19T04:15:38;11.25;;;2.40;;
45236;SDS011;30973;51.442;3.580;2023-01-19T04:18:05;14.50;;;2.13;;
45236;SDS011;30973;51.442;3.580;2023-01-19T04:20:32;8.73;;;2.10;;
45236;SDS011;30973;51.442;3.580;2023-01-19T04:22:59;11.07;;;2.55;;
45236;SDS011;30973;51.442;3.580;2023-01-19T04:25:27;10.27;;;2.60;;
45236;SDS011;30973;51.442;3.580;2023-01-19T04:27:54;9.23;;;2.60;;
45236;SDS011;30973;51.442;3.580;2023-01-19T04:30:22;12.52;;;2.30;;
45236;SDS011;30973;51.442;3.580;2023-01-19T04:32:49;8.50;;;2.67;;
45236;SDS011;30973;51.442;3.580;2023-01-19T04:35:17;9.38;;;2.10;;
45236;SDS011;30973;51.442;3.580;2023-01-19T04:37:44;11.77;;;2.47;;
45236;SDS011;30973;51.442;3.580;2023-01-19T04:40:11;11.32;;;2.53;;
45236;SDS011;30973;51.442;3.580;2023-01-19T04:42:38;8.85;;;2.90;;
45236;SDS011;30973;51.442;3.580;2023-01-19T04:45:04;9.40;;;2.50;;
45236;SDS011;30973;51.442;3.580;2023-01-19T04:47:31;9.40;;;2.13;;
45236;SDS011;30973;51.442;3.580;2023-01-19T04:49:58;8.55;;;2.10;;
45236;SDS011;30973;51.442;3.580;2023-01-19T04:52:25;10.83;;;2.20;;
45236;SDS011;30973;51.442;3.580;2023-01-19T04:55:00;10.27;;;2.08;;
45236;SDS011;30973;51.442;3.580;2023-01-19T04:57:28;11.13;;;2.42;;
45236;SDS011;30973;51.442;3.580;2023-01-19T04:59:56;11.00;;;2.55;;
45236;SDS011;30973;51.442;3.580;2023-01-19T05:02:23;8.55;;;2.50;;
45236;SDS011;30973;51.442;3.580;2023-01-19T05:04:50;9.82;;;2.22;;
45236;SDS011;30973;51.442;3.580;2023-01-19T05:07:16;9.15;;;2.72;;
45236;SDS011;30973;51.442;3.580;2023-01-19T05:09:43;11.07;;;2.78;;
45236;SDS011;30973;51.442;3.580;2023-01-19T05:12:10;8.18;;;2.40;;
45236;SDS011;30973;51.442;3.580;2023-01-19T05:14:37;9.57;;;1.90;;
45236;SDS011;30973;51.442;3.580;2023-01-19T05:17:04;7.47;;;2.10;;
45236;SDS011;30973;51.442;3.580;2023-01-19T05:19:31;6.43;;;1.88;;
45236;SDS011;30973;51.442;3.580;2023-01-19T05:21:57;7.53;;;2.10;;
45236;SDS011;30973;51.442;3.580;2023-01-19T05:24:24;8.85;;;1.90;;
45236;SDS011;30973;51.442;3.580;2023-01-19T05:26:51;7.50;;;2.53;;
45236;SDS011;30973;51.442;3.580;2023-01-19T05:29:17;6.53;;;2.00;;
45236;SDS011;30973;51.442;3.580;2023-01-19T05:31:44;6.45;;;1.75;;
45236;SDS011;30973;51.442;3.580;2023-01-19T05:34:11;10.23;;;2.70;;
45236;SDS011;30973;51.442;3.580;2023-01-19T05:36:38;7.68;;;1.88;;
45236;SDS011;30973;51.442;3.580;2023-01-19T05:39:05;11.80;;;2.00;;
45236;SDS011;30973;51.442;3.580;2023-01-19T05:41:31;11.43;;;2.10;;
45236;SDS011;30973;51.442;3.580;2023-01-19T05:44:08;9.80;;;1.92;;
45236;SDS011;30973;51.442;3.580;2023-01-19T05:46:35;8.82;;;2.28;;
45236;SDS011;30973;51.442;3.580;2023-01-19T05:49:01;7.38;;;2.25;;
45236;SDS011;30973;51.442;3.580;2023-01-19T05:51:30;10.48;;;2.47;;
45236;SDS011;30973;51.442;3.580;2023-01-19T05:54:00;5.63;;;1.95;;
45236;SDS011;30973;51.442;3.580;2023-01-19T05:56:27;10.77;;;2.10;;
45236;SDS011;30973;51.442;3.580;2023-01-19T05:58:54;9.43;;;1.98;;
45236;SDS011;30973;51.442;3.580;2023-01-19T06:01:21;11.00;;;2.35;;
45236;SDS011;30973;51.442;3.580;2023-01-19T06:03:47;10.30;;;2.28;;
45236;SDS011;30973;51.442;3.580;2023-01-19T06:06:14;10.13;;;2.20;;
45236;SDS011;30973;51.442;3.580;2023-01-19T06:08:41;11.88;;;2.30;;
45236;SDS011;30973;51.442;3.580;2023-01-19T06:11:07;7.72;;;2.30;;
45236;SDS011;30973;51.442;3.580;2023-01-19T06:13:34;12.68;;;2.30;;
45236;SDS011;30973;51.442;3.580;2023-01-19T06:16:01;10.60;;;2.05;;
45236;SDS011;30973;51.442;3.580;2023-01-19T06:18:28;13.32;;;1.90;;
45236;SDS011;30973;51.442;3.580;2023-01-19T06:20:55;6.90;;;2.00;;
45236;SDS011;30973;51.442;3.580;2023-01-19T06:23:26;6.05;;;1.73;;
45236;SDS011;30973;51.442;3.580;2023-01-19T06:25:52;12.80;;;2.05;;
45236;SDS011;30973;51.442;3.580;2023-01-19T06:28:19;5.70;;;1.88;;
45236;SDS011;30973;51.442;3.580;2023-01-19T06:30:50;8.45;;;1.63;;
45236;SDS011;30973;51.442;3.580;2023-01-19T06:33:17;12.20;;;2.47;;
45236;SDS011;30973;51.442;3.580;2023-01-19T06:35:44;8.00;;;2.00;;
45236;SDS011;30973;51.442;3.580;2023-01-19T06:38:12;10.75;;;2.47;;
45236;SDS011;30973;51.442;3.580;2023-01-19T06:40:39;8.40;;;2.47;;
45236;SDS011;30973;51.442;3.580;2023-01-19T06:43:07;11.13;;;2.95;;
45236;SDS011;30973;51.442;3.580;2023-01-19T06:45:34;5.97;;;2.20;;
45236;SDS011;30973;51.442;3.580;2023-01-19T06:48:01;9.93;;;2.00;;
45236;SDS011;30973;51.442;3.580;2023-01-19T06:50:29;8.93;;;2.42;;
45236;SDS011;30973;51.442;3.580;2023-01-19T06:52:55;8.05;;;2.17;;
45236;SDS011;30973;51.442;3.580;2023-01-19T06:55:22;8.02;;;1.77;;
45236;SDS011;30973;51.442;3.580;2023-01-19T06:57:56;9.73;;;3.05;;
45236;SDS011;30973;51.442;3.580;2023-01-19T07:00:24;8.52;;;2.53;;
45236;SDS011;30973;51.442;3.580;2023-01-19T07:02:51;10.48;;;1.40;;
45236;SDS011;30973;51.442;3.580;2023-01-19T07:05:18;9.93;;;1.95;;
45236;SDS011;30973;51.442;3.580;2023-01-19T07:07:49;10.60;;;2.10;;
45236;SDS011;30973;51.442;3.580;2023-01-19T07:10:17;7.18;;;1.67;;
45236;SDS011;30973;51.442;3.580;2023-01-19T07:12:44;8.70;;;1.90;;
45236;SDS011;30973;51.442;3.580;2023-01-19T07:15:13;9.20;;;1.90;;
45236;SDS011;30973;51.442;3.580;2023-01-19T07:17:40;9.27;;;1.45;;
45236;SDS011;30973;51.442;3.580;2023-01-19T07:20:10;10.20;;;1.83;;
45236;SDS011;30973;51.442;3.580;2023-01-19T07:22:40;6.35;;;1.92;;
45236;SDS011;30973;51.442;3.580;2023-01-19T07:25:08;12.18;;;1.75;;
45236;SDS011;30973;51.442;3.580;2023-01-19T07:27:35;10.77;;;1.63;;
45236;SDS011;30973;51.442;3.580;2023-01-19T07:30:02;7.10;;;1.58;;
45236;SDS011;30973;51.442;3.580;2023-01-19T07:32:29;5.57;;;1.63;;
45236;SDS011;30973;51.442;3.580;2023-01-19T07:34:56;9.18;;;1.50;;
45236;SDS011;30973;51.442;3.580;2023-01-19T07:37:23;6.43;;;2.03;;
45236;SDS011;30973;51.442;3.580;2023-01-19T07:39:49;11.32;;;2.22;;
45236;SDS011;30973;51.442;3.580;2023-01-19T07:42:16;13.50;;;2.28;;
45236;SDS011;30973;51.442;3.580;2023-01-19T07:44:43;8.68;;;1.70;;
45236;SDS011;30973;51.442;3.580;2023-01-19T07:47:09;5.70;;;1.17;;
45236;SDS011;30973;51.442;3.580;2023-01-19T07:49:38;9.05;;;1.80;;
45236;SDS011;30973;51.442;3.580;2023-01-19T07:52:05;3.58;;;1.38;;
45236;SDS011;30973;51.442;3.580;2023-01-19T07:54:34;7.85;;;1.60;;
45236;SDS011;30973;51.442;3.580;2023-01-19T07:57:02;5.25;;;1.17;;
45236;SDS011;30973;51.442;3.580;2023-01-19T08:25:36;5.15;;;1.58;;
45236;SDS011;30973;51.442;3.580;2023-01-19T08:39:08;4.55;;;1.35;;
45236;SDS011;30973;51.442;3.580;2023-01-19T08:41:38;5.35;;;1.10;;
45236;SDS011;30973;51.442;3.580;2023-01-19T08:44:04;5.93;;;1.25;;
45236;SDS011;30973;51.442;3.580;2023-01-19T08:46:31;3.33;;;1.13;;
45236;SDS011;30973;51.442;3.580;2023-01-19T08:48:58;4.85;;;0.90;;
45236;SDS011;30973;51.442;3.580;2023-01-19T08:51:24;5.43;;;1.15;;
45236;SDS011;30973;51.442;3.580;2023-01-19T08:53:51;5.72;;;1.20;;
45236;SDS011;30973;51.442;3.580;2023-01-19T08:56:17;5.10;;;1.08;;
45236;SDS011;30973;51.442;3.580;2023-01-19T08:58:46;4.22;;;1.20;;
45236;SDS011;30973;51.442;3.580;2023-01-19T09:01:28;3.67;;;1.08;;
45236;SDS011;30973;51.442;3.580;2023-01-19T09:03:55;5.93;;;1.13;;
45236;SDS011;30973;51.442;3.580;2023-01-19T09:06:22;5.18;;;1.60;;
45236;SDS011;30973;51.442;3.580;2023-01-19T09:08:50;5.95;;;1.38;;
45236;SDS011;30973;51.442;3.580;2023-01-19T09:11:17;3.55;;;1.35;;
45236;SDS011;30973;51.442;3.580;2023-01-19T09:13:45;7.68;;;1.70;;
45236;SDS011;30973;51.442;3.580;2023-01-19T09:16:11;5.88;;;1.15;;
45236;SDS011;30973;51.442;3.580;2023-01-19T09:18:40;4.70;;;0.93;;
45236;SDS011;30973;51.442;3.580;2023-01-19T09:21:07;6.18;;;1.48;;
45236;SDS011;30973;51.442;3.580;2023-01-19T09:23:34;6.28;;;1.25;;
45236;SDS011;30973;51.442;3.580;2023-01-19T09:26:02;10.02;;;1.23;;
45236;SDS011;30973;51.442;3.580;2023-01-19T09:28:29;6.88;;;1.55;;
45236;SDS011;30973;51.442;3.580;2023-01-19T09:30:56;4.78;;;1.13;;
45236;SDS011;30973;51.442;3.580;2023-01-19T09:33:23;5.88;;;1.23;;
45236;SDS011;30973;51.442;3.580;2023-01-19T09:35:50;3.33;;;1.00;;
45236;SDS011;30973;51.442;3.580;2023-01-19T09:38:17;3.55;;;1.17;;
45236;SDS011;30973;51.442;3.580;2023-01-19T09:40:48;8.10;;;1.40;;
45236;SDS011;30973;51.442;3.580;2023-01-19T09:50:55;5.53;;;2.15;;
45236;SDS011;30973;51.442;3.580;2023-01-19T09:53:38;4.53;;;1.70;;
45236;SDS011;30973;51.442;3.580;2023-01-19T09:56:10;10.10;;;2.65;;
45236;SDS011;30973;51.442;3.580;2023-01-19T09:58:38;14.15;;;4.57;;
45236;SDS011;30973;51.442;3.580;2023-01-19T10:01:25;9.02;;;3.25;;
45236;SDS011;30973;51.442;3.580;2023-01-19T10:04:10;13.13;;;3.50;;
45236;SDS011;30973;51.442;3.580;2023-01-19T10:06:40;10.55;;;3.78;;
45236;SDS011;30973;51.442;3.580;2023-01-19T10:09:15;10.75;;;3.60;;
45236;SDS011;30973;51.442;3.580;2023-01-19T10:14:41;6.43;;;3.35;;
45236;SDS011;30973;51.442;3.580;2023-01-19T10:17:17;9.10;;;3.28;;
45236;SDS011;30973;51.442;3.580;2023-01-19T10:19:50;8.75;;;3.97;;
45236;SDS011;30973;51.442;3.580;2023-01-19T10:22:20;7.22;;;3.22;;
45236;SDS011;30973;51.442;3.580;2023-01-19T10:24:47;8.15;;;3.30;;
45236;SDS011;30973;51.442;3.580;2023-01-19T10:27:19;12.63;;;3.10;;
45236;SDS011;30973;51.442;3.580;2023-01-19T10:29:47;9.65;;;3.92;;
45236;SDS011;30973;51.442;3.580;2023-01-19T10:32:21;17.08;;;3.05;;
45236;SDS011;30973;51.442;3.580;2023-01-19T10:34:49;6.43;;;3.33;;
45236;SDS011;30973;51.442;3.580;2023-01-19T10:39:46;11.35;;;3.30;;
45236;SDS011;30973;51.442;3.580;2023-01-19T10:42:17;11.85;;;3.67;;
45236;SDS011;30973;51.442;3.580;2023-01-19T10:44:43;9.27;;;4.22;;
45236;SDS011;30973;51.442;3.580;2023-01-19T10:47:13;9.25;;;3.05;;
45236;SDS011;30973;51.442;3.580;2023-01-19T10:49:40;9.73;;;3.83;;
45236;SDS011;30973;51.442;3.580;2023-01-19T10:54:54;7.20;;;3.60;;
45236;SDS011;30973;51.442;3.580;2023-01-19T10:57:30;7.47;;;3.30;;
45236;SDS011;30973;51.442;3.580;2023-01-19T10:59:58;11.13;;;3.58;;
45236;SDS011;30973;51.442;3.580;2023-01-19T11:02:29;10.63;;;3.20;;
45236;SDS011;30973;51.442;3.580;2023-01-19T11:04:57;8.57;;;3.35;;
45236;SDS011;30973;51.442;3.580;2023-01-19T11:12:45;9.15;;;3.00;;
45236;SDS011;30973;51.442;3.580;2023-01-19T11:15:15;7.63;;;3.25;;
45236;SDS011;30973;51.442;3.580;2023-01-19T11:17:46;18.17;;;3.65;;
45236;SDS011;30973;51.442;3.580;2023-01-19T11:20:22;11.85;;;2.78;;
45236;SDS011;30973;51.442;3.580;2023-01-19T11:23:03;8.93;;;3.20;;
45236;SDS011;30973;51.442;3.580;2023-01-19T11:25:31;8.88;;;2.92;;
45236;SDS011;30973;51.442;3.580;2023-01-19T11:27:58;5.07;;;1.92;;
45236;SDS011;30973;51.442;3.580;2023-01-19T11:30:26;6.40;;;1.20;;
45236;SDS011;30973;51.442;3.580;2023-01-19T11:32:52;5.80;;;1.10;;
45236;SDS011;30973;51.442;3.580;2023-01-19T11:38:05;5.85;;;1.40;;
45236;SDS011;30973;51.442;3.580;2023-01-19T11:40:32;5.72;;;1.13;;
45236;SDS011;30973;51.442;3.580;2023-01-19T11:43:00;6.95;;;1.20;;
45236;SDS011;30973;51.442;3.580;2023-01-19T11:45:27;8.73;;;1.52;;
45236;SDS011;30973;51.442;3.580;2023-01-19T11:47:54;10.43;;;1.92;;
45236;SDS011;30973;51.442;3.580;2023-01-19T11:50:23;4.55;;;1.63;;
45236;SDS011;30973;51.442;3.580;2023-01-19T11:52:51;6.18;;;1.88;;
45236;SDS011;30973;51.442;3.580;2023-01-19T11:55:21;6.65;;;1.30;;
45236;SDS011;30973;51.442;3.580;2023-01-19T11:57:50;7.43;;;1.38;;
45236;SDS011;30973;51.442;3.580;2023-01-19T12:00:55;5.13;;;1.40;;
45236;SDS011;30973;51.442;3.580;2023-01-19T12:03:33;6.35;;;1.35;;
45236;SDS011;30973;51.442;3.580;2023-01-19T12:06:05;2.83;;;1.25;;
45236;SDS011;30973;51.442;3.580;2023-01-19T12:08:34;7.95;;;1.38;;
45236;SDS011;30973;51.442;3.580;2023-01-19T12:11:02;6.72;;;1.40;;
45236;SDS011;30973;51.442;3.580;2023-01-19T12:13:29;8.40;;;1.40;;
45236;SDS011;30973;51.442;3.580;2023-01-19T12:18:28;4.93;;;1.60;;
45236;SDS011;30973;51.442;3.580;2023-01-19T12:20:56;5.28;;;1.70;;
45236;SDS011;30973;51.442;3.580;2023-01-19T12:23:28;7.18;;;1.67;;
45236;SDS011;30973;51.442;3.580;2023-01-19T12:28:44;5.90;;;1.27;;
45236;SDS011;30973;51.442;3.580;2023-01-19T12:31:15;4.78;;;1.20;;
45236;SDS011;30973;51.442;3.580;2023-01-19T12:33:43;4.68;;;1.42;;
45236;SDS011;30973;51.442;3.580;2023-01-19T12:41:19;4.95;;;1.20;;
45236;SDS011;30973;51.442;3.580;2023-01-19T12:43:47;8.50;;;1.45;;
45236;SDS011;30973;51.442;3.580;2023-01-19T12:46:28;4.43;;;1.00;;
45236;SDS011;30973;51.442;3.580;2023-01-19T12:49:02;6.20;;;1.30;;
45236;SDS011;30973;51.442;3.580;2023-01-19T12:51:29;7.75;;;1.42;;
45236;SDS011;30973;51.442;3.580;2023-01-19T12:53:56;6.90;;;1.42;;
45236;SDS011;30973;51.442;3.580;2023-01-19T12:56:26;4.35;;;1.33;;
45236;SDS011;30973;51.442;3.580;2023-01-19T12:58:54;6.57;;;1.40;;
45236;SDS011;30973;51.442;3.580;2023-01-19T13:01:21;5.10;;;0.95;;
45236;SDS011;30973;51.442;3.580;2023-01-19T13:03:57;5.05;;;1.02;;
45236;SDS011;30973;51.442;3.580;2023-01-19T13:09:29;4.90;;;1.30;;
45236;SDS011;30973;51.442;3.580;2023-01-19T13:14:41;2.92;;;1.08;;
45236;SDS011;30973;51.442;3.580;2023-01-19T13:20:00;4.47;;;1.42;;
45236;SDS011;30973;51.442;3.580;2023-01-19T13:25:12;5.32;;;1.00;;
45236;SDS011;30973;51.442;3.580;2023-01-19T13:27:39;3.42;;;1.10;;
45236;SDS011;30973;51.442;3.580;2023-01-19T13:30:10;5.35;;;1.08;;
45236;SDS011;30973;51.442;3.580;2023-01-19T13:32:39;5.18;;;1.23;;
45236;SDS011;30973;51.442;3.580;2023-01-19T13:35:11;2.58;;;1.05;;
45236;SDS011;30973;51.442;3.580;2023-01-19T13:37:39;7.35;;;1.33;;
45236;SDS011;30973;51.442;3.580;2023-01-19T13:40:13;4.78;;;1.20;;
45236;SDS011;30973;51.442;3.580;2023-01-19T13:42:41;3.22;;;1.00;;
45236;SDS011;30973;51.442;3.580;2023-01-19T13:45:15;3.65;;;1.60;;
45236;SDS011;30973;51.442;3.580;2023-01-19T13:47:47;4.20;;;1.17;;
45236;SDS011;30973;51.442;3.580;2023-01-19T13:50:17;2.50;;;1.00;;
45236;SDS011;30973;51.442;3.580;2023-01-19T13:52:44;3.67;;;1.10;;
45236;SDS011;30973;51.442;3.580;2023-01-19T13:55:12;3.97;;;1.25;;
45236;SDS011;30973;51.442;3.580;2023-01-19T13:57:40;1.23;;;0.70;;
45236;SDS011;30973;51.442;3.580;2023-01-19T14:00:14;3.65;;;0.90;;
45236;SDS011;30973;51.442;3.580;2023-01-19T14:02:54;3.15;;;0.82;;
45236;SDS011;30973;51.442;3.580;2023-01-19T14:08:10;3.40;;;0.90;;
45236;SDS011;30973;51.442;3.580;2023-01-19T14:10:45;4.60;;;0.98;;
45236;SDS011;30973;51.442;3.580;2023-01-19T14:15:39;2.45;;;0.82;;
45236;SDS011;30973;51.442;3.580;2023-01-19T14:18:25;3.35;;;1.10;;
45236;SDS011;30973;51.442;3.580;2023-01-19T14:21:03;6.78;;;1.13;;
45236;SDS011;30973;51.442;3.580;2023-01-19T14:23:50;3.75;;;1.15;;
45236;SDS011;30973;51.442;3.580;2023-01-19T14:29:06;4.10;;;0.77;;
45236;SDS011;30973;51.442;3.580;2023-01-19T14:31:33;4.38;;;0.95;;
45236;SDS011;30973;51.442;3.580;2023-01-19T14:34:27;2.50;;;1.10;;
45236;SDS011;30973;51.442;3.580;2023-01-19T14:36:53;3.28;;;1.10;;
45236;SDS011;30973;51.442;3.580;2023-01-19T14:39:21;3.60;;;1.10;;
45236;SDS011;30973;51.442;3.580;2023-01-19T14:41:49;4.13;;;1.00;;
45236;SDS011;30973;51.442;3.580;2023-01-19T14:44:20;2.00;;;0.82;;
45236;SDS011;30973;51.442;3.580;2023-01-19T14:46:51;1.50;;;0.95;;
45236;SDS011;30973;51.442;3.580;2023-01-19T14:49:28;4.38;;;1.08;;
45236;SDS011;30973;51.442;3.580;2023-01-19T14:51:55;3.67;;;1.00;;
45236;SDS011;30973;51.442;3.580;2023-01-19T14:54:26;3.03;;;0.90;;
45236;SDS011;30973;51.442;3.580;2023-01-19T14:56:53;4.22;;;0.93;;
45236;SDS011;30973;51.442;3.580;2023-01-19T14:59:20;2.67;;;0.85;;
45236;SDS011;30973;51.442;3.580;2023-01-19T15:01:47;4.30;;;0.93;;
45236;SDS011;30973;51.442;3.580;2023-01-19T15:04:13;2.70;;;0.98;;
45236;SDS011;30973;51.442;3.580;2023-01-19T15:06:40;4.80;;;1.25;;
45236;SDS011;30973;51.442;3.580;2023-01-19T15:09:12;2.47;;;0.88;;
45236;SDS011;30973;51.442;3.580;2023-01-19T15:11:39;2.92;;;0.90;;
45236;SDS011;30973;51.442;3.580;2023-01-19T15:14:07;3.05;;;0.80;;
45236;SDS011;30973;51.442;3.580;2023-01-19T15:16:37;2.20;;;0.80;;
45236;SDS011;30973;51.442;3.580;2023-01-19T15:19:03;2.25;;;0.82;;
45236;SDS011;30973;51.442;3.580;2023-01-19T15:21:30;3.38;;;0.90;;
45236;SDS011;30973;51.442;3.580;2023-01-19T15:23:57;2.17;;;0.82;;
45236;SDS011;30973;51.442;3.580;2023-01-19T15:26:24;3.22;;;1.00;;
45236;SDS011;30973;51.442;3.580;2023-01-19T15:28:51;2.90;;;1.00;;
45236;SDS011;30973;51.442;3.580;2023-01-19T15:31:20;2.72;;;1.10;;
45236;SDS011;30973;51.442;3.580;2023-01-19T15:33:47;4.78;;;1.38;;
45236;SDS011;30973;51.442;3.580;2023-01-19T15:36:15;3.67;;;0.98;;
45236;SDS011;30973;51.442;3.580;2023-01-19T15:38:43;5.70;;;1.10;;
45236;SDS011;30973;51.442;3.580;2023-01-19T15:41:32;2.17;;;0.80;;
45236;SDS011;30973;51.442;3.580;2023-01-19T15:43:57;3.42;;;1.20;;
45236;SDS011;30973;51.442;3.580;2023-01-19T15:46:24;3.05;;;0.77;;
45236;SDS011;30973;51.442;3.580;2023-01-19T15:48:51;3.80;;;1.10;;
45236;SDS011;30973;51.442;3.580;2023-01-19T15:51:20;3.42;;;1.02;;
45236;SDS011;30973;51.442;3.580;2023-01-19T15:53:47;5.13;;;1.38;;
45236;SDS011;30973;51.442;3.580;2023-01-19T15:56:18;3.30;;;1.02;;
45236;SDS011;30973;51.442;3.580;2023-01-19T15:58:45;3.13;;;1.10;;
45236;SDS011;30973;51.442;3.580;2023-01-19T16:01:12;3.22;;;0.77;;
45236;SDS011;30973;51.442;3.580;2023-01-19T16:03:40;3.92;;;0.70;;
45236;SDS011;30973;51.442;3.580;2023-01-19T16:06:07;3.83;;;1.00;;
45236;SDS011;30973;51.442;3.580;2023-01-19T16:08:34;3.92;;;1.00;;
45236;SDS011;30973;51.442;3.580;2023-01-19T16:11:09;2.92;;;1.00;;
45236;SDS011;30973;51.442;3.580;2023-01-19T16:13:35;4.20;;;1.30;;
45236;SDS011;30973;51.442;3.580;2023-01-19T16:16:13;3.63;;;1.05;;
45236;SDS011;30973;51.442;3.580;2023-01-19T16:18:40;2.30;;;1.15;;
45236;SDS011;30973;51.442;3.580;2023-01-19T16:21:06;2.83;;;1.25;;
45236;SDS011;30973;51.442;3.580;2023-01-19T16:23:33;3.10;;;1.30;;
45236;SDS011;30973;51.442;3.580;2023-01-19T16:26:00;3.95;;;1.35;;
45236;SDS011;30973;51.442;3.580;2023-01-19T16:28:30;2.35;;;0.98;;
45236;SDS011;30973;51.442;3.580;2023-01-19T16:30:57;11.60;;;2.05;;
45236;SDS011;30973;51.442;3.580;2023-01-19T16:33:23;4.90;;;1.75;;
45236;SDS011;30973;51.442;3.580;2023-01-19T16:35:51;2.67;;;1.20;;
45236;SDS011;30973;51.442;3.580;2023-01-19T16:38:17;2.15;;;1.13;;
45236;SDS011;30973;51.442;3.580;2023-01-19T16:40:44;3.22;;;1.40;;
45236;SDS011;30973;51.442;3.580;2023-01-19T16:43:12;4.25;;;1.00;;